Time;durP1;ratioP1;P1;durP2;ratioP2;P2;SDS_P1;SDS_P2;PMS_P1;PMS_P2;Temp;Humidity;BMP_temperature;BMP_pressure;BME280_temperature;BME280_humidity;BME280_pressure;Samples;Min_cycle;Max_cycle;Signal;HPM_P1;HPM_P2
2022/06/13 00:02:10;;;;;;;;;;;22.80;99.90;;;;;;5038334;28;19921;-84
2022/06/13 00:04:37;;;;;;;;;;;22.80;99.90;;;;;;5037652;28;19921;-84
2022/06/13 00:07:04;;;;;;;;;;;22.80;99.90;;;;;;5037316;28;19921;-84
2022/06/13 00:09:30;;;;;;;;;;;22.80;99.90;;;;;;5038835;28;19963;-84
2022/06/13 00:11:58;;;;;;;;;;;22.80;99.90;;;;;;5037538;28;19927;-84
2022/06/13 00:14:25;;;;;;;;;;;22.80;99.90;;;;;;5037246;28;19928;-84
2022/06/13 00:16:52;;;;;;;;;;;22.80;99.90;;;;;;5037415;28;20118;-84
2022/06/13 00:19:19;;;;;;;;;;;22.70;99.90;;;;;;5038217;28;19927;-84
2022/06/13 00:21:45;;;;;;;;;;;22.80;99.90;;;;;;5037445;28;19921;-84
2022/06/13 00:24:12;;;;;;;;;;;22.80;99.90;;;;;;5038904;28;20024;-84
2022/06/13 00:26:39;;;;;;;;;;;22.80;99.90;;;;;;5038725;28;19967;-82
2022/06/13 00:29:07;;;;;;;;;;;22.80;99.90;;;;;;5038459;28;19988;-82
2022/06/13 00:31:34;;;;;;;;;;;22.70;99.90;;;;;;5038469;28;20325;-82
2022/06/13 00:34:01;;;;;;;;;;;22.80;99.90;;;;;;5039364;28;19921;-82
2022/06/13 00:36:27;;;;;;;;;;;22.80;99.90;;;;;;5038276;28;19960;-82
2022/06/13 00:38:55;;;;;;;;;;;22.80;99.90;;;;;;5037974;28;20456;-82
2022/06/13 00:41:24;;;;;;;;;;;22.80;99.90;;;;;;5038382;28;19921;-82
2022/06/13 00:43:51;;;;;;;;;;;22.80;99.90;;;;;;5039005;28;19921;-81
2022/06/13 00:46:21;;;;;;;;;;;22.80;99.90;;;;;;5037835;28;19921;-81
2022/06/13 00:48:49;;;;;;;;;;;22.70;99.90;;;;;;5037845;28;19971;-82
2022/06/13 00:51:16;;;;;;;;;;;22.70;99.90;;;;;;5037364;28;19920;-82
2022/06/13 00:53:43;;;;;;;;;;;22.80;99.90;;;;;;5037288;28;19925;-82
2022/06/13 00:56:11;;;;;;;;;;;22.80;99.90;;;;;;5037087;28;19921;-82
2022/06/13 00:58:40;;;;;;;;;;;22.70;99.90;;;;;;5037593;28;20003;-82
2022/06/13 01:01:07;;;;;;;;;;;22.80;99.90;;;;;;5037795;28;19921;-82
2022/06/13 01:03:36;;;;;;;;;;;22.80;99.90;;;;;;5037788;28;20023;-81
2022/06/13 01:06:05;;;;;;;;;;;22.70;99.90;;;;;;5038276;28;19925;-81
2022/06/13 01:08:33;;;;;;;;;;;22.80;99.90;;;;;;5037596;28;19944;-81
2022/06/13 01:11:16;;;;;;;;;;;22.80;99.90;;;;;;5037671;28;19984;-81
2022/06/13 01:14:01;;;;;;;;;;;22.70;99.90;;;;;;5038214;28;19924;-81
2022/06/13 01:16:34;;;;;;;;;;;22.70;99.90;;;;;;5027872;28;20377;-81
2022/06/13 01:19:12;;;;;;;;;;;22.70;99.90;;;;;;5037205;28;19928;-81
2022/06/13 01:21:43;;;;;;;;;;;22.70;99.90;;;;;;5037566;28;19953;-81
2022/06/13 01:24:28;;;;;;;;;;;22.80;99.90;;;;;;5039018;28;20011;-81
2022/06/13 01:27:12;;;;;;;;;;;22.80;99.90;;;;;;5039712;28;19967;-81
2022/06/13 01:29:44;;;;;;;;;;;22.70;99.90;;;;;;5040420;28;20020;-81
2022/06/13 01:32:17;;;;;;;;;;;22.70;99.90;;;;;;5039133;28;19976;-81
2022/06/13 01:34:48;;;;;;;;;;;22.70;99.90;;;;;;5036811;28;20015;-81
2022/06/13 01:37:20;;;;;;;;;;;22.70;99.90;;;;;;5037037;28;19927;-81
2022/06/13 01:39:54;;;;;;;;;;;22.70;99.90;;;;;;5036879;28;19921;-81
2022/06/13 01:42:26;;;;;;;;;;;22.70;99.90;;;;;;5036644;28;20012;-81
2022/06/13 01:44:57;;;;;;;;;;;22.80;99.90;;;;;;5036294;28;19976;-81
2022/06/13 01:47:30;;;;;;;;;;;22.70;99.90;;;;;;5037236;28;20015;-81
2022/06/13 01:50:01;;;;;;;;;;;22.80;99.90;;;;;;5036720;28;19921;-81
2022/06/13 01:52:29;;;;;;;;;;;22.70;99.90;;;;;;5036998;28;19920;-81
2022/06/13 01:54:58;;;;;;;;;;;22.70;99.90;;;;;;5038235;28;19925;-81
2022/06/13 01:57:29;;;;;;;;;;;22.70;99.90;;;;;;5038107;28;19984;-81
2022/06/13 02:00:00;;;;;;;;;;;22.70;99.90;;;;;;5037340;28;20429;-81
2022/06/13 02:02:32;;;;;;;;;;;22.70;99.90;;;;;;5035432;28;20012;-81
2022/06/13 02:05:01;;;;;;;;;;;22.70;99.90;;;;;;5036242;28;19983;-81
2022/06/13 02:07:28;;;;;;;;;;;22.70;99.90;;;;;;5034903;28;19968;-81
2022/06/13 02:09:57;;;;;;;;;;;22.70;99.90;;;;;;5035834;28;19924;-82
2022/06/13 02:12:25;;;;;;;;;;;22.70;99.90;;;;;;5034304;28;19921;-82
2022/06/13 02:14:54;;;;;;;;;;;22.70;99.90;;;;;;5034611;28;19921;-82
2022/06/13 02:17:22;;;;;;;;;;;22.70;99.90;;;;;;5034818;28;19956;-82
2022/06/13 02:19:53;;;;;;;;;;;22.70;99.90;;;;;;5034868;28;20016;-82
2022/06/13 02:22:21;;;;;;;;;;;22.70;99.90;;;;;;5034233;28;19921;-82
2022/06/13 02:24:51;;;;;;;;;;;22.70;99.90;;;;;;5034301;28;19957;-82
2022/06/13 02:27:19;;;;;;;;;;;22.70;99.90;;;;;;5034089;28;20451;-82
2022/06/13 02:29:48;;;;;;;;;;;22.70;99.90;;;;;;5034377;28;19929;-82
2022/06/13 02:32:17;;;;;;;;;;;22.70;99.90;;;;;;5037848;28;19921;-81
2022/06/13 02:34:46;;;;;;;;;;;22.70;99.90;;;;;;5038281;28;20024;-81
2022/06/13 02:37:18;;;;;;;;;;;22.70;99.90;;;;;;5037993;28;19924;-81
2022/06/13 02:39:47;;;;;;;;;;;22.70;99.90;;;;;;5038425;28;20007;-81
2022/06/13 02:42:16;;;;;;;;;;;22.70;99.90;;;;;;5037925;28;20012;-81
2022/06/13 02:44:44;;;;;;;;;;;22.70;99.90;;;;;;5038354;28;19921;-81
2022/06/13 02:47:15;;;;;;;;;;;22.70;99.90;;;;;;5038041;28;19921;-81
2022/06/13 02:49:44;;;;;;;;;;;22.70;99.90;;;;;;5038266;28;19967;-81
2022/06/13 02:52:16;;;;;;;;;;;22.70;99.90;;;;;;5038784;28;19921;-81
2022/06/13 02:54:46;;;;;;;;;;;22.70;99.90;;;;;;5039110;28;20493;-81
2022/06/13 02:57:25;;;;;;;;;;;22.70;99.90;;;;;;5038563;28;19925;-81
2022/06/13 03:00:02;;;;;;;;;;;22.70;99.90;;;;;;5038397;28;19924;-81
2022/06/13 03:02:31;;;;;;;;;;;22.70;99.90;;;;;;5038124;28;19921;-81
2022/06/13 03:04:59;;;;;;;;;;;22.70;99.90;;;;;;5038866;28;20435;-81
2022/06/13 03:07:31;;;;;;;;;;;22.70;99.90;;;;;;5039643;28;19921;-81
2022/06/13 03:10:02;;;;;;;;;;;22.70;99.90;;;;;;5040311;28;20302;-81
2022/06/13 03:12:32;;;;;;;;;;;22.70;99.90;;;;;;5038337;28;19921;-81
2022/06/13 03:15:01;;;;;;;;;;;22.70;99.90;;;;;;5038591;28;20451;-81
2022/06/13 03:17:31;;;;;;;;;;;22.70;99.90;;;;;;5039815;28;19921;-81
2022/06/13 03:20:03;;;;;;;;;;;22.70;99.90;;;;;;5040117;28;19960;-81
2022/06/13 03:22:33;;;;;;;;;;;22.70;99.90;;;;;;5040448;28;20457;-81
2022/06/13 03:25:07;;;;;;;;;;;22.70;99.90;;;;;;5040302;28;20320;-81
2022/06/13 03:27:36;;;;;;;;;;;22.70;99.90;;;;;;5040089;28;19975;-81
2022/06/13 03:30:06;;;;;;;;;;;22.70;99.90;;;;;;5039025;28;19964;-81
2022/06/13 03:32:35;;;;;;;;;;;22.70;99.90;;;;;;5037733;28;19921;-81
2022/06/13 03:35:04;;;;;;;;;;;22.70;99.90;;;;;;5038350;28;20436;-81
2022/06/13 03:37:32;;;;;;;;;;;22.70;99.90;;;;;;5038375;28;19977;-81
2022/06/13 03:40:01;;;;;;;;;;;22.70;99.90;;;;;;5038027;28;20011;-81
2022/06/13 03:42:30;;;;;;;;;;;22.70;99.90;;;;;;5037914;28;20292;-82
2022/06/13 03:44:59;;;;;;;;;;;22.70;99.90;;;;;;5038145;28;19979;-82
2022/06/13 03:47:28;;;;;;;;;;;22.70;99.90;;;;;;5038456;28;19921;-82
2022/06/13 03:49:59;;;;;;;;;;;22.70;99.90;;;;;;5038024;28;19931;-82
2022/06/13 03:52:26;;;;;;;;;;;22.70;99.90;;;;;;5038213;28;19964;-82
2022/06/13 03:54:55;;;;;;;;;;;22.70;99.90;;;;;;5037949;28;19967;-82
2022/06/13 03:57:25;;;;;;;;;;;22.70;99.90;;;;;;5038246;28;19921;-82
2022/06/13 03:59:54;;;;;;;;;;;22.70;99.90;;;;;;5037901;28;19968;-82
2022/06/13 04:02:28;;;;;;;;;;;22.70;99.90;;;;;;5038643;28;19921;-82
2022/06/13 04:04:55;;;;;;;;;;;22.70;99.90;;;;;;5038946;28;19996;-82
2022/06/13 04:07:24;;;;;;;;;;;22.70;99.90;;;;;;5037153;28;19928;-82
2022/06/13 04:09:52;;;;;;;;;;;22.70;99.90;;;;;;5036501;28;20367;-82
2022/06/13 04:12:24;;;;;;;;;;;22.70;99.90;;;;;;5036197;28;19965;-82
2022/06/13 04:14:59;;;;;;;;;;;22.70;99.90;;;;;;5036219;28;19927;-82
2022/06/13 04:17:30;;;;;;;;;;;22.70;99.90;;;;;;5035898;28;20361;-82
2022/06/13 04:20:02;;;;;;;;;;;22.70;99.90;;;;;;5036199;28;19927;-82
2022/06/13 04:22:37;;;;;;;;;;;22.70;99.90;;;;;;5036062;28;20011;-82
2022/06/13 04:25:05;;;;;;;;;;;22.70;99.90;;;;;;5035858;28;19974;-82
2022/06/13 04:27:35;;;;;;;;;;;22.70;99.90;;;;;;5036404;28;19921;-82
2022/06/13 04:30:09;;;;;;;;;;;22.70;99.90;;;;;;5035695;28;19971;-82
2022/06/13 04:32:40;;;;;;;;;;;22.70;99.90;;;;;;5035751;28;19928;-82
2022/06/13 04:35:07;;;;;;;;;;;22.70;99.90;;;;;;5036714;28;19943;-82
2022/06/13 04:37:34;;;;;;;;;;;22.70;99.90;;;;;;5036482;28;19925;-82
2022/06/13 04:40:02;;;;;;;;;;;22.70;99.90;;;;;;5036047;28;20376;-82
2022/06/13 04:42:31;;;;;;;;;;;22.70;99.90;;;;;;5036465;28;19921;-82
2022/06/13 04:44:59;;;;;;;;;;;22.70;99.90;;;;;;5035605;28;19964;-82
2022/06/13 04:47:28;;;;;;;;;;;22.70;99.90;;;;;;5035482;28;19983;-82
2022/06/13 04:49:55;;;;;;;;;;;22.70;99.90;;;;;;5036137;28;19931;-82
2022/06/13 04:52:25;;;;;;;;;;;22.70;99.90;;;;;;5036932;28;19921;-82
2022/06/13 04:54:53;;;;;;;;;;;22.70;99.90;;;;;;5036623;28;19927;-82
2022/06/13 04:57:20;;;;;;;;;;;22.70;99.90;;;;;;5035323;28;19971;-82
2022/06/13 04:59:47;;;;;;;;;;;22.60;99.90;;;;;;5035911;28;19956;-82
2022/06/13 05:02:15;;;;;;;;;;;22.70;99.90;;;;;;5035910;28;19960;-82
2022/06/13 05:04:44;;;;;;;;;;;22.70;99.90;;;;;;5036827;28;19920;-82
2022/06/13 05:07:12;;;;;;;;;;;22.70;99.90;;;;;;5036293;28;19927;-82
2022/06/13 05:09:41;;;;;;;;;;;22.70;99.90;;;;;;5036969;28;19921;-82
2022/06/13 05:12:10;;;;;;;;;;;22.70;99.90;;;;;;5036885;28;19927;-82
2022/06/13 05:14:39;;;;;;;;;;;22.70;99.90;;;;;;5036732;28;19927;-82
2022/06/13 05:17:16;;;;;;;;;;;22.70;99.90;;;;;;5037821;28;20007;-82
2022/06/13 05:19:50;;;;;;;;;;;22.70;99.90;;;;;;5037721;28;20377;-82
2022/06/13 05:22:26;;;;;;;;;;;22.70;99.90;;;;;;5036491;28;20015;-82
2022/06/13 05:25:01;;;;;;;;;;;22.70;99.90;;;;;;5036923;28;19921;-82
2022/06/13 05:27:28;;;;;;;;;;;22.70;99.90;;;;;;5036681;28;20016;-82
2022/06/13 05:29:54;;;;;;;;;;;22.70;99.90;;;;;;5034983;28;19931;-83
2022/06/13 05:32:21;;;;;;;;;;;22.70;99.90;;;;;;5034870;28;19968;-85
2022/06/13 05:34:50;;;;;;;;;;;22.70;99.90;;;;;;5036033;28;19961;-83
2022/06/13 05:37:17;;;;;;;;;;;22.70;99.90;;;;;;5035550;28;19929;-84
2022/06/13 05:39:44;;;;;;;;;;;22.70;99.90;;;;;;5035832;28;19921;-82
2022/06/13 05:42:12;;;;;;;;;;;22.70;99.90;;;;;;5035998;28;20455;-83
2022/06/13 05:44:38;;;;;;;;;;;22.70;99.90;;;;;;5036673;28;19928;-82
2022/06/13 05:47:05;;;;;;;;;;;22.70;99.90;;;;;;5037285;28;20335;-82
2022/06/13 05:49:32;;;;;;;;;;;22.70;99.90;;;;;;5036733;28;19921;-82
2022/06/13 05:52:00;;;;;;;;;;;22.70;99.90;;;;;;5036595;28;19960;-82
2022/06/13 05:54:27;;;;;;;;;;;22.70;99.90;;;;;;5036671;28;19921;-82
2022/06/13 05:56:54;;;;;;;;;;;22.70;99.90;;;;;;5036866;28;20007;-82
2022/06/13 05:59:20;;;;;;;;;;;22.70;99.90;;;;;;5036259;28;20020;-82
2022/06/13 06:01:47;;;;;;;;;;;22.70;99.90;;;;;;5036497;28;19964;-83
2022/06/13 06:04:14;;;;;;;;;;;22.70;99.90;;;;;;5036192;28;20003;-83
2022/06/13 06:06:40;;;;;;;;;;;22.70;99.90;;;;;;5040173;28;19953;-83
2022/06/13 06:09:08;;;;;;;;;;;22.70;99.90;;;;;;5040673;28;19925;-82
2022/06/13 06:11:36;;;;;;;;;;;22.70;99.90;;;;;;5040906;28;19921;-81
2022/06/13 06:14:02;;;;;;;;;;;22.70;99.90;;;;;;5042257;28;19921;-80
2022/06/13 06:16:29;;;;;;;;;;;22.70;99.90;;;;;;5041563;28;20011;-80
2022/06/13 06:18:56;;;;;;;;;;;22.70;99.90;;;;;;5038662;28;19934;-80
2022/06/13 06:21:23;;;;;;;;;;;22.70;99.90;;;;;;5038297;28;20012;-79
2022/06/13 06:23:50;;;;;;;;;;;22.60;99.90;;;;;;5038210;28;19921;-79
2022/06/13 06:26:19;;;;;;;;;;;22.60;99.90;;;;;;5037639;28;19920;-78
2022/06/13 06:28:46;;;;;;;;;;;22.60;99.90;;;;;;5037457;28;19921;-78
2022/06/13 06:31:13;;;;;;;;;;;22.60;99.90;;;;;;5037198;28;19927;-79
2022/06/13 06:33:39;;;;;;;;;;;22.60;99.90;;;;;;5037275;28;20012;-79
2022/06/13 06:36:07;;;;;;;;;;;22.50;99.90;;;;;;5037445;28;19928;-79
2022/06/13 06:38:34;;;;;;;;;;;22.50;99.90;;;;;;5037501;28;19921;-79
2022/06/13 06:41:00;;;;;;;;;;;22.50;99.90;;;;;;5037255;28;20003;-79
2022/06/13 06:43:28;;;;;;;;;;;22.50;99.90;;;;;;5037145;28;20008;-79
2022/06/13 06:45:55;;;;;;;;;;;22.50;99.90;;;;;;5036964;28;19979;-79
2022/06/13 06:48:22;;;;;;;;;;;22.40;99.90;;;;;;5037362;28;19921;-79
2022/06/13 06:50:50;;;;;;;;;;;22.40;99.90;;;;;;5038309;28;19920;-83
2022/06/13 06:53:18;;;;;;;;;;;22.40;99.90;;;;;;5037198;28;19920;-83
2022/06/13 07:01:11;;;;;;;;;;;22.50;99.90;;;;;;5036428;28;19921;-83
2022/06/13 07:03:38;;;;;;;;;;;22.50;99.90;;;;;;5038958;28;20376;-83
2022/06/13 07:06:07;;;;;;;;;;;22.50;99.90;;;;;;5040063;28;19920;-83
2022/06/13 07:08:33;;;;;;;;;;;22.50;99.90;;;;;;5040099;28;20009;-83
2022/06/13 07:11:53;;;;;;;;;;;22.50;99.90;;;;;;5041557;28;20343;-83
2022/06/13 07:13:50;;;;;;;;;;;22.60;99.90;;;;;;5039468;28;20376;-83
2022/06/13 07:16:17;;;;;;;;;;;22.60;99.80;;;;;;5039451;28;19967;-83
2022/06/13 07:18:45;;;;;;;;;;;22.50;99.60;;;;;;5039430;28;20007;-83
2022/06/13 07:21:12;;;;;;;;;;;22.60;99.60;;;;;;5039483;28;19921;-83
2022/06/13 07:23:38;;;;;;;;;;;22.60;99.50;;;;;;5039805;28;19927;-83
2022/06/13 07:26:05;;;;;;;;;;;22.60;99.40;;;;;;5045168;28;19947;-83
2022/06/13 07:28:32;;;;;;;;;;;22.60;99.30;;;;;;5045600;28;19976;-83
2022/06/13 07:31:00;;;;;;;;;;;22.60;99.20;;;;;;5045187;28;19921;-83
2022/06/13 07:33:27;;;;;;;;;;;22.60;99.10;;;;;;5043870;28;20019;-83
2022/06/13 07:35:53;;;;;;;;;;;22.60;99.00;;;;;;5039192;28;20039;-83
2022/06/13 07:38:20;;;;;;;;;;;22.60;99.00;;;;;;5041235;28;19984;-83
2022/06/13 07:40:48;;;;;;;;;;;22.60;99.00;;;;;;5041889;28;19921;-83
2022/06/13 07:43:28;;;;;;;;;;;22.60;99.00;;;;;;5040547;28;20019;-83
2022/06/13 07:45:57;;;;;;;;;;;22.60;98.80;;;;;;5041605;28;20004;-83
2022/06/13 07:48:25;;;;;;;;;;;22.70;98.70;;;;;;5040521;28;19943;-83
2022/06/13 07:50:52;;;;;;;;;;;22.60;98.60;;;;;;5041662;28;19980;-82
2022/06/13 07:53:19;;;;;;;;;;;22.60;98.50;;;;;;5044347;28;19920;-81
2022/06/13 07:55:45;;;;;;;;;;;22.70;98.40;;;;;;5040184;28;19925;-81
2022/06/13 07:58:15;;;;;;;;;;;22.70;98.30;;;;;;5037462;28;20019;-83
2022/06/13 08:00:42;;;;;;;;;;;22.70;98.30;;;;;;5038419;28;20035;-82
2022/06/13 08:03:16;;;;;;;;;;;22.70;98.20;;;;;;5035816;28;19948;-83
2022/06/13 08:05:44;;;;;;;;;;;22.70;98.10;;;;;;5038883;28;19960;-81
2022/06/13 08:08:11;;;;;;;;;;;22.70;98.00;;;;;;5037314;28;19925;-78
2022/06/13 08:10:38;;;;;;;;;;;22.70;98.00;;;;;;5037897;28;19956;-80
2022/06/13 08:13:04;;;;;;;;;;;22.70;97.90;;;;;;5038276;28;19943;-80
2022/06/13 08:15:31;;;;;;;;;;;22.70;97.80;;;;;;5038229;28;19927;-79
2022/06/13 08:17:58;;;;;;;;;;;22.70;97.70;;;;;;5040173;28;20015;-79
2022/06/13 08:20:24;;;;;;;;;;;22.70;97.60;;;;;;5038700;28;19971;-79
2022/06/13 08:22:54;;;;;;;;;;;22.70;97.60;;;;;;5037095;28;19920;-79
2022/06/13 08:25:21;;;;;;;;;;;22.70;97.50;;;;;;5036241;28;19921;-79
2022/06/13 08:27:48;;;;;;;;;;;22.70;97.30;;;;;;5035340;28;19921;-79
2022/06/13 08:30:15;;;;;;;;;;;22.70;97.20;;;;;;5035747;28;20343;-79
2022/06/13 08:32:42;;;;;;;;;;;22.70;97.10;;;;;;5035993;28;19927;-79
2022/06/13 08:35:08;;;;;;;;;;;22.70;97.00;;;;;;5036408;28;20307;-78
2022/06/13 08:37:35;;;;;;;;;;;22.70;96.80;;;;;;5036595;28;19921;-79
2022/06/13 08:40:04;;;;;;;;;;;22.70;96.60;;;;;;5037901;28;19921;-79
2022/06/13 08:42:32;;;;;;;;;;;22.70;96.60;;;;;;5037900;28;19921;-79
2022/06/13 08:45:01;;;;;;;;;;;22.70;96.60;;;;;;5036627;28;20004;-79
2022/06/13 08:47:33;;;;;;;;;;;22.70;96.50;;;;;;5036330;28;19931;-79
2022/06/13 08:50:05;;;;;;;;;;;22.70;96.30;;;;;;5039554;28;19984;-81
2022/06/13 08:52:35;;;;;;;;;;;22.70;96.20;;;;;;5039187;28;20012;-82
2022/06/13 08:55:11;;;;;;;;;;;22.70;96.00;;;;;;5041012;28;19928;-82
2022/06/13 08:57:40;;;;;;;;;;;22.70;95.80;;;;;;5039714;28;19929;-83
2022/06/13 09:00:09;;;;;;;;;;;22.70;95.70;;;;;;5036351;28;19925;-82
2022/06/13 09:02:40;;;;;;;;;;;22.70;95.50;;;;;;5035826;28;19933;-83
2022/06/13 09:05:08;;;;;;;;;;;22.70;95.40;;;;;;5036051;28;19921;-82
2022/06/13 09:07:38;;;;;;;;;;;22.70;95.30;;;;;;5038391;28;20432;-82
2022/06/13 09:10:07;;;;;;;;;;;22.70;95.10;;;;;;5034611;28;19995;-82
2022/06/13 09:12:39;;;;;;;;;;;22.70;95.00;;;;;;5034597;28;19970;-82
2022/06/13 09:15:07;;;;;;;;;;;22.70;94.80;;;;;;5035220;28;19921;-82
2022/06/13 09:17:38;;;;;;;;;;;22.70;94.70;;;;;;5037202;28;19984;-82
2022/06/13 09:20:08;;;;;;;;;;;22.70;94.50;;;;;;5037057;28;19928;-82
2022/06/13 09:22:42;;;;;;;;;;;22.70;94.40;;;;;;5043292;28;19928;-83
2022/06/13 09:25:13;;;;;;;;;;;22.70;94.20;;;;;;5039500;28;19921;-82
2022/06/13 09:27:44;;;;;;;;;;;22.70;94.20;;;;;;5021737;28;20360;-82
2022/06/13 09:30:13;;;;;;;;;;;22.70;94.10;;;;;;5039934;28;20023;-83
2022/06/13 09:32:41;;;;;;;;;;;22.70;93.90;;;;;;5038014;28;20341;-82
2022/06/13 09:35:10;;;;;;;;;;;22.70;93.80;;;;;;5040274;28;19964;-82
2022/06/13 09:37:40;;;;;;;;;;;22.70;93.60;;;;;;5039669;28;19921;-81
2022/06/13 09:40:07;;;;;;;;;;;22.70;93.50;;;;;;5037857;28;19932;-82
2022/06/13 09:42:47;;;;;;;;;;;22.70;93.40;;;;;;5037912;28;20303;-82
2022/06/13 09:45:27;;;;;;;;;;;22.70;93.20;;;;;;5036967;28;19921;-83
2022/06/13 09:47:59;;;;;;;;;;;22.70;93.10;;;;;;5037504;28;19928;-82
2022/06/13 09:50:32;;;;;;;;;;;22.70;92.90;;;;;;5038008;28;19931;-83
2022/06/13 09:53:02;;;;;;;;;;;22.70;92.80;;;;;;5037445;28;20384;-82
2022/06/13 09:55:33;;;;;;;;;;;22.70;92.60;;;;;;5037849;28;20011;-80
2022/06/13 09:58:07;;;;;;;;;;;22.70;92.50;;;;;;5037344;28;19994;-83
2022/06/13 10:00:37;;;;;;;;;;;22.70;92.30;;;;;;5037996;28;20016;-80
2022/06/13 10:03:08;;;;;;;;;;;22.70;92.20;;;;;;5038683;28;19968;-83
2022/06/13 10:05:38;;;;;;;;;;;22.70;92.00;;;;;;5037867;28;19928;-82
2022/06/13 10:08:22;;;;;;;;;;;22.70;91.90;;;;;;5038245;28;20015;-83
2022/06/13 10:10:51;;;;;;;;;;;22.70;91.70;;;;;;5037710;28;19921;-82
2022/06/13 10:13:24;;;;;;;;;;;22.70;91.70;;;;;;5037795;28;20024;-83
2022/06/13 10:15:57;;;;;;;;;;;22.70;91.70;;;;;;5037588;28;19921;-82
2022/06/13 10:18:41;;;;;;;;;;;22.70;91.80;;;;;;5039362;28;19921;-82
2022/06/13 10:21:11;;;;;;;;;;;22.70;91.30;;;;;;5037401;28;20339;-82
2022/06/13 10:23:41;;;;;;;;;;;22.70;91.10;;;;;;5037215;28;20007;-82
2022/06/13 10:26:12;;;;;;;;;;;22.70;91.00;;;;;;5036650;28;19921;-82
2022/06/13 10:28:48;;;;;;;;;;;22.70;90.90;;;;;;5036438;28;19921;-80
2022/06/13 10:31:20;;;;;;;;;;;22.70;90.80;;;;;;5035452;28;19921;-80
2022/06/13 10:33:50;;;;;;;;;;;22.70;90.60;;;;;;5035568;28;19948;-80
2022/06/13 10:36:19;;;;;;;;;;;22.70;90.50;;;;;;5037303;28;20410;-80
2022/06/13 10:38:57;;;;;;;;;;;22.70;90.30;;;;;;5035979;28;20369;-80
2022/06/13 10:41:25;;;;;;;;;;;22.70;90.20;;;;;;5035127;28;19925;-80
2022/06/13 10:43:53;;;;;;;;;;;22.70;90.10;;;;;;5036113;28;20011;-80
2022/06/13 10:46:20;;;;;;;;;;;22.70;89.90;;;;;;5036171;28;19920;-80
2022/06/13 10:48:49;;;;;;;;;;;22.70;89.70;;;;;;5038280;28;20012;-80
2022/06/13 10:51:16;;;;;;;;;;;22.70;89.30;;;;;;5039460;28;20036;-79
2022/06/13 10:53:46;;;;;;;;;;;22.70;89.00;;;;;;5040910;28;20012;-80
2022/06/13 10:56:19;;;;;;;;;;;22.70;88.80;;;;;;5040727;28;20377;-81
2022/06/13 10:58:48;;;;;;;;;;;22.70;88.40;;;;;;5041706;28;20441;-80
2022/06/13 11:01:17;;;;;;;;;;;22.70;88.10;;;;;;5041840;28;20380;-80
2022/06/13 11:03:45;;;;;;;;;;;22.70;88.10;;;;;;5041665;28;19975;-81
2022/06/13 11:06:17;;;;;;;;;;;22.70;87.90;;;;;;5040857;28;19925;-81
2022/06/13 11:08:44;;;;;;;;;;;22.70;87.50;;;;;;5040590;28;20439;-80
2022/06/13 11:11:14;;;;;;;;;;;22.70;87.20;;;;;;5040613;28;20011;-79
2022/06/13 11:13:42;;;;;;;;;;;22.70;87.00;;;;;;5039686;28;19921;-80
2022/06/13 11:24:40;;;;;;;;;;;22.70;85.80;;;;;;5038918;28;20000;-80
2022/06/13 11:30:06;;;;;;;;;;;22.70;85.30;;;;;;5039218;28;20319;-80
2022/06/13 11:32:34;;;;;;;;;;;22.70;85.00;;;;;;5037566;28;20047;-80
2022/06/13 11:35:01;;;;;;;;;;;22.70;84.70;;;;;;5036887;28;20027;-78
2022/06/13 11:37:27;;;;;;;;;;;22.70;84.40;;;;;;5036041;28;19925;-78
2022/06/13 11:39:54;;;;;;;;;;;22.70;84.10;;;;;;5039109;28;19948;-80
2022/06/13 11:42:24;;;;;;;;;;;22.70;83.90;;;;;;5038062;28;20355;-79
2022/06/13 11:44:53;;;;;;;;;;;22.70;83.60;;;;;;5037993;28;20300;-78
2022/06/13 11:47:21;;;;;;;;;;;22.70;83.40;;;;;;5035917;28;20007;-79
2022/06/13 11:49:50;;;;;;;;;;;22.70;83.10;;;;;;5038272;28;19920;-80
2022/06/13 11:55:18;;;;;;;;;;;22.70;82.40;;;;;;5036023;28;20058;-77
2022/06/13 11:57:47;;;;;;;;;;;22.70;82.40;;;;;;5036178;28;19921;-77
2022/06/13 12:00:23;;;;;;;;;;;22.70;82.40;;;;;;5035600;28;20016;-77
2022/06/13 12:02:54;;;;;;;;;;;22.70;82.40;;;;;;5035671;28;19921;-77
2022/06/13 12:05:31;;;;;;;;;;;22.70;81.90;;;;;;5035776;28;19928;-77
2022/06/13 12:07:59;;;;;;;;;;;22.70;81.60;;;;;;5035450;28;20442;-77
2022/06/13 12:10:27;;;;;;;;;;;22.70;82.00;;;;;;5035675;28;19928;-77
2022/06/13 12:12:53;;;;;;;;;;;22.70;81.80;;;;;;5035616;28;19921;-77
2022/06/13 12:15:20;;;;;;;;;;;22.70;80.70;;;;;;5035478;28;19921;-77
2022/06/13 12:17:49;;;;;;;;;;;22.70;80.40;;;;;;5035092;28;20370;-77
2022/06/13 12:20:17;;;;;;;;;;;22.70;80.10;;;;;;5035475;28;19921;-77
2022/06/13 12:22:49;;;;;;;;;;;22.70;79.70;;;;;;5035064;28;19921;-77
2022/06/13 12:25:20;;;;;;;;;;;22.70;79.50;;;;;;5035100;28;20361;-77
2022/06/13 12:27:51;;;;;;;;;;;22.70;79.20;;;;;;5034970;28;19925;-77
2022/06/13 12:30:32;;;;;;;;;;;22.70;78.90;;;;;;5036073;28;19932;-77
2022/06/13 12:33:06;;;;;;;;;;;22.70;78.60;;;;;;5031544;28;19921;-77
2022/06/13 12:35:53;;;;;;;;;;;22.70;78.20;;;;;;5035804;28;20283;-77
2022/06/13 12:38:38;;;;;;;;;;;22.70;77.90;;;;;;5036214;28;19921;-80
2022/06/13 12:41:11;;;;;;;;;;;22.70;77.60;;;;;;5036440;28;19921;-80
2022/06/13 12:43:47;;;;;;;;;;;22.70;77.20;;;;;;5035901;28;19932;-80
2022/06/13 12:46:27;;;;;;;;;;;22.70;76.80;;;;;;5035870;28;20015;-80
2022/06/13 12:49:00;;;;;;;;;;;22.70;76.60;;;;;;5035869;28;19971;-80
2022/06/13 12:51:32;;;;;;;;;;;22.70;76.60;;;;;;5035543;28;19927;-80
2022/06/13 12:54:11;;;;;;;;;;;22.70;76.30;;;;;;5035843;28;20345;-80
2022/06/13 12:56:40;;;;;;;;;;;22.70;75.90;;;;;;5035445;28;19924;-80
2022/06/13 12:59:15;;;;;;;;;;;22.70;75.60;;;;;;5035717;28;19921;-80
2022/06/13 13:01:47;;;;;;;;;;;22.70;75.30;;;;;;5036159;28;19953;-80
2022/06/13 13:04:32;;;;;;;;;;;22.70;75.00;;;;;;5035413;28;20353;-80
2022/06/13 13:07:03;;;;;;;;;;;22.70;74.70;;;;;;5022391;28;19921;-80
2022/06/13 13:09:38;;;;;;;;;;;22.70;74.50;;;;;;5036177;28;19964;-79
2022/06/13 13:12:14;;;;;;;;;;;22.70;74.10;;;;;;5036865;28;19921;-80
2022/06/13 13:14:46;;;;;;;;;;;22.70;73.80;;;;;;5035413;28;20003;-80
2022/06/13 13:17:18;;;;;;;;;;;22.70;73.50;;;;;;5035735;28;19986;-80
2022/06/13 13:19:50;;;;;;;;;;;22.70;73.20;;;;;;5035501;28;19928;-80
2022/06/13 13:22:20;;;;;;;;;;;22.70;72.90;;;;;;5035181;28;19921;-80
2022/06/13 13:25:04;;;;;;;;;;;22.80;72.80;;;;;;5035330;28;19925;-80
2022/06/13 13:27:36;;;;;;;;;;;22.80;72.50;;;;;;5035482;28;19971;-80
2022/06/13 13:30:06;;;;;;;;;;;22.70;72.10;;;;;;5035510;28;19921;-80
2022/06/13 13:32:38;;;;;;;;;;;22.70;71.80;;;;;;5034978;28;19983;-80
2022/06/13 13:35:09;;;;;;;;;;;22.80;71.60;;;;;;5035515;28;19960;-80
2022/06/13 13:37:38;;;;;;;;;;;22.80;71.20;;;;;;5035542;28;20015;-80
2022/06/13 13:40:13;;;;;;;;;;;22.80;70.80;;;;;;5035329;28;19927;-80
2022/06/13 13:42:44;;;;;;;;;;;22.80;70.80;;;;;;5035920;28;19921;-82
2022/06/13 13:45:26;;;;;;;;;;;22.80;70.80;;;;;;5036153;28;19921;-82
2022/06/13 13:47:55;;;;;;;;;;;22.80;70.30;;;;;;5035585;28;20007;-82
2022/06/13 13:50:23;;;;;;;;;;;22.80;69.90;;;;;;5036254;28;19976;-82
2022/06/13 13:52:52;;;;;;;;;;;22.80;69.50;;;;;;5036469;28;19928;-82
2022/06/13 13:55:22;;;;;;;;;;;22.80;69.20;;;;;;5036014;28;20332;-82
2022/06/13 13:57:52;;;;;;;;;;;22.80;68.90;;;;;;5035649;28;19975;-80
2022/06/13 14:00:20;;;;;;;;;;;22.80;68.60;;;;;;5035055;28;19991;-79
2022/06/13 14:02:52;;;;;;;;;;;22.80;68.20;;;;;;5035205;28;20016;-79
2022/06/13 14:05:27;;;;;;;;;;;22.80;67.90;;;;;;5034684;28;19967;-79
2022/06/13 14:07:57;;;;;;;;;;;22.80;68.40;;;;;;5035941;28;19928;-80
2022/06/13 14:10:26;;;;;;;;;;;22.80;67.30;;;;;;5036192;28;20012;-82
2022/06/13 14:13:00;;;;;;;;;;;22.80;67.10;;;;;;5038683;28;20436;-82
2022/06/13 14:15:31;;;;;;;;;;;22.80;66.90;;;;;;5038327;28;19921;-82
2022/06/13 14:17:58;;;;;;;;;;;22.80;66.70;;;;;;5043471;28;20432;-82
2022/06/13 14:20:26;;;;;;;;;;;22.80;66.40;;;;;;5043646;28;20007;-82
2022/06/13 14:22:57;;;;;;;;;;;22.80;66.20;;;;;;5040812;28;19921;-80
2022/06/13 14:25:27;;;;;;;;;;;22.80;66.00;;;;;;5041730;28;20007;-81
2022/06/13 14:27:55;;;;;;;;;;;22.80;65.80;;;;;;5044215;28;20277;-80
2022/06/13 14:33:09;;;;;;;;;;;22.80;65.40;;;;;;5043529;28;19967;-82
2022/06/13 14:35:52;;;;;;;;;;;22.80;65.20;;;;;;5044334;28;19977;-80
2022/06/13 14:38:29;;;;;;;;;;;22.90;65.00;;;;;;5045129;28;19940;-81
2022/06/13 14:41:00;;;;;;;;;;;22.90;64.90;;;;;;5045398;28;20019;-81
2022/06/13 14:43:32;;;;;;;;;;;22.80;64.80;;;;;;5047423;28;20379;-80
2022/06/13 14:46:01;;;;;;;;;;;22.90;64.90;;;;;;5043851;28;20036;-80
2022/06/13 14:48:33;;;;;;;;;;;22.90;64.90;;;;;;5045270;28;19943;-80
2022/06/13 14:51:21;;;;;;;;;;;22.90;64.90;;;;;;5043507;28;19921;-79
2022/06/13 14:53:48;;;;;;;;;;;22.90;64.60;;;;;;5043269;28;19921;-80
2022/06/13 14:56:34;;;;;;;;;;;22.90;64.40;;;;;;5043934;28;19928;-80